Time;durP1;ratioP1;P1;durP2;ratioP2;P2;SDS_P1;SDS_P2;PMS_P1;PMS_P2;Temp;Humidity;BMP_temperature;BMP_pressure;BME280_temperature;BME280_humidity;BME280_pressure;Samples;Min_cycle;Max_cycle;Signal;HPM_P1;HPM_P2
2021/03/20 00:00:27;;;;;;;1.27;1.20;;;3.40;99.90;;;;;;5117397;28;20210;-79
2021/03/20 00:02:54;;;;;;;0.70;0.70;;;3.40;99.90;;;;;;5117068;28;20231;-80
2021/03/20 00:05:21;;;;;;;0.55;0.52;;;3.40;99.90;;;;;;5117804;28;20200;-80
2021/03/20 00:07:48;;;;;;;3.35;3.15;;;3.50;99.90;;;;;;5116862;28;20239;-80
2021/03/20 00:10:17;;;;;;;0.50;0.40;;;3.50;99.90;;;;;;5117150;28;20201;-80
2021/03/20 00:12:45;;;;;;;0.50;0.50;;;3.50;99.90;;;;;;5117181;28;20217;-80
2021/03/20 00:15:14;;;;;;;0.50;0.40;;;3.50;99.90;;;;;;5116724;28;20210;-79
2021/03/20 00:17:41;;;;;;;0.50;0.40;;;3.50;99.90;;;;;;5116665;28;20191;-80
2021/03/20 00:20:11;;;;;;;0.50;0.40;;;3.60;99.90;;;;;;5116914;28;20225;-80
2021/03/20 00:22:37;;;;;;;0.50;0.40;;;3.60;99.90;;;;;;5109788;28;20213;-80
2021/03/20 00:25:05;;;;;;;0.50;0.40;;;3.60;99.90;;;;;;5096249;28;20198;-80
2021/03/20 00:27:31;;;;;;;0.50;0.40;;;3.60;99.90;;;;;;5115916;28;20256;-80
2021/03/20 00:29:58;;;;;;;1.17;0.75;;;3.60;99.90;;;;;;5116737;28;20203;-80
2021/03/20 00:32:24;;;;;;;0.80;0.80;;;3.50;99.90;;;;;;5116797;28;20219;-80
2021/03/20 00:34:51;;;;;;;0.50;0.50;;;3.50;99.90;;;;;;5117303;28;20200;-78
2021/03/20 00:37:18;;;;;;;0.50;0.40;;;3.50;99.90;;;;;;5116214;28;20212;-81
2021/03/20 00:39:44;;;;;;;0.50;0.50;;;3.30;99.90;;;;;;5096676;28;20214;-80
2021/03/20 00:42:11;;;;;;;0.50;0.47;;;3.30;99.90;;;;;;5094040;28;20207;-79
2021/03/20 00:44:37;;;;;;;0.60;0.50;;;3.10;99.90;;;;;;5094496;28;20231;-81
2021/03/20 00:47:04;;;;;;;0.50;0.40;;;3.00;99.90;;;;;;5094831;28;20209;-80
2021/03/20 00:49:31;;;;;;;0.50;0.40;;;2.80;99.90;;;;;;5095975;28;20214;-80
2021/03/20 00:51:58;;;;;;;0.50;0.40;;;2.70;99.90;;;;;;5095945;28;20277;-80
2021/03/20 00:54:25;;;;;;;0.50;0.50;;;2.60;99.90;;;;;;5087580;28;20192;-79
2021/03/20 00:56:51;;;;;;;0.50;0.50;;;2.60;99.90;;;;;;5104567;28;20199;-80
2021/03/20 00:59:18;;;;;;;0.50;0.45;;;2.50;99.90;;;;;;5096353;28;20197;-80
2021/03/20 01:01:44;;;;;;;0.73;0.73;;;2.50;99.90;;;;;;5096308;28;20215;-80
2021/03/20 01:04:10;;;;;;;0.50;0.40;;;2.40;99.90;;;;;;5102349;28;20231;-81
2021/03/20 01:06:36;;;;;;;0.50;0.47;;;2.20;99.90;;;;;;5094595;28;20208;-81
2021/03/20 01:09:05;;;;;;;0.50;0.40;;;2.20;99.90;;;;;;5096076;28;20233;-80
2021/03/20 01:11:33;;;;;;;0.50;0.50;;;2.00;99.90;;;;;;5095276;28;20212;-80
2021/03/20 01:14:00;;;;;;;0.50;0.50;;;1.90;99.90;;;;;;5104767;28;20210;-80
2021/03/20 01:16:27;;;;;;;0.50;0.50;;;1.90;99.90;;;;;;5086776;28;20188;-79
2021/03/20 01:18:54;;;;;;;0.60;0.60;;;1.90;99.90;;;;;;5095613;28;20203;-79
2021/03/20 01:21:21;;;;;;;0.50;0.45;;;1.70;99.90;;;;;;5095664;28;20206;-79
2021/03/20 01:23:47;;;;;;;0.50;0.50;;;1.80;99.90;;;;;;5089383;28;20572;-80
2021/03/20 01:26:14;;;;;;;0.50;0.50;;;1.60;99.90;;;;;;5110831;28;20209;-81
2021/03/20 01:28:42;;;;;;;0.50;0.50;;;1.60;99.90;;;;;;5116262;28;20195;-80
2021/03/20 01:31:09;;;;;;;0.50;0.47;;;1.60;99.90;;;;;;5115527;28;20196;-79
2021/03/20 01:33:35;;;;;;;0.50;0.50;;;1.60;99.90;;;;;;5119479;28;20273;-79
2021/03/20 01:36:02;;;;;;;0.50;0.50;;;1.50;99.90;;;;;;5119458;28;20194;-80
2021/03/20 01:38:28;;;;;;;0.50;0.50;;;1.40;99.90;;;;;;5119423;28;20282;-80
2021/03/20 01:40:57;;;;;;;0.50;0.40;;;1.30;99.90;;;;;;5118044;28;20204;-79
2021/03/20 01:43:27;;;;;;;0.50;0.50;;;1.30;99.90;;;;;;5119811;28;20217;-79
2021/03/20 01:45:55;;;;;;;0.50;0.40;;;1.20;99.90;;;;;;5118733;28;20196;-78
2021/03/20 01:48:23;;;;;;;0.50;0.45;;;1.10;99.90;;;;;;5119435;28;20710;-80
2021/03/20 01:50:55;;;;;;;0.50;0.40;;;1.00;99.90;;;;;;5120159;28;20539;-80
2021/03/20 01:53:33;;;;;;;0.50;0.50;;;0.90;99.90;;;;;;5102983;28;20259;-80
2021/03/20 01:56:01;;;;;;;0.50;0.50;;;0.90;99.90;;;;;;5111741;28;20180;-80
2021/03/20 01:58:29;;;;;;;0.50;0.50;;;0.90;99.90;;;;;;5119083;28;20193;-79
2021/03/20 02:01:04;;;;;;;0.50;0.40;;;0.80;99.90;;;;;;5119359;28;20198;-80
2021/03/20 02:03:31;;;;;;;0.50;0.50;;;0.90;99.90;;;;;;5119117;28;20318;-79
2021/03/20 02:05:59;;;;;;;0.50;0.40;;;0.80;99.90;;;;;;5117987;28;20201;-79
2021/03/20 02:08:25;;;;;;;0.95;0.95;;;0.80;99.90;;;;;;5118932;28;20193;-80
2021/03/20 02:10:55;;;;;;;0.50;0.50;;;0.70;99.90;;;;;;5119773;28;20241;-80
2021/03/20 02:13:28;;;;;;;0.50;0.50;;;0.60;99.90;;;;;;5119067;28;20209;-81
2021/03/20 02:16:01;;;;;;;0.50;0.50;;;0.50;99.90;;;;;;5118021;28;20177;-77
2021/03/20 02:18:35;;;;;;;0.50;0.50;;;0.50;99.90;;;;;;5119737;28;20175;-80
2021/03/20 02:21:19;;;;;;;0.50;0.45;;;0.40;99.90;;;;;;5118928;28;20297;-79
2021/03/20 02:24:22;;;;;;;0.50;0.50;;;0.40;99.90;;;;;;5096241;28;20212;-80
2021/03/20 02:27:13;;;;;;;0.50;0.50;;;0.40;99.90;;;;;;5077402;28;20582;-80
2021/03/20 02:30:40;;;;;;;0.50;0.50;;;0.30;99.90;;;;;;5078080;28;20184;-81
2021/03/20 02:33:30;;;;;;;0.50;0.50;;;0.20;99.90;;;;;;5078256;28;20206;-81
2021/03/20 02:36:08;;;;;;;0.50;0.50;;;0.10;99.90;;;;;;5076978;28;20255;-79
2021/03/20 02:38:43;;;;;;;0.50;0.50;;;0.10;99.90;;;;;;5078133;28;20177;-81
2021/03/20 02:41:18;;;;;;;0.50;0.40;;;0.10;99.90;;;;;;5076228;28;20188;-79
2021/03/20 02:43:54;;;;;;;0.50;0.47;;;0.10;99.90;;;;;;5077469;28;20591;-81
2021/03/20 02:46:25;;;;;;;0.50;0.47;;;0.10;99.90;;;;;;5076919;28;20198;-80
2021/03/20 02:49:00;;;;;;;0.50;0.50;;;0.10;99.90;;;;;;5077810;28;20202;-79
2021/03/20 02:51:32;;;;;;;0.50;0.50;;;0.00;99.90;;;;;;5077913;28;20639;-80
2021/03/20 02:54:05;;;;;;;0.50;0.50;;;0.00;99.90;;;;;;5087255;28;20217;-80
2021/03/20 02:56:43;;;;;;;0.50;0.50;;;-0.10;99.90;;;;;;5076729;28;20179;-80
2021/03/20 02:59:12;;;;;;;0.50;0.50;;;-0.10;99.90;;;;;;5077759;28;20187;-79
2021/03/20 03:01:41;;;;;;;0.50;0.50;;;-0.10;99.90;;;;;;5077078;28;20200;-79
2021/03/20 03:04:12;;;;;;;0.50;0.50;;;0.00;99.90;;;;;;5077604;28;20579;-80
2021/03/20 03:06:46;;;;;;;2.75;2.55;;;-0.10;99.90;;;;;;5076016;28;20565;-79
2021/03/20 03:09:17;;;;;;;0.50;0.40;;;-0.20;99.90;;;;;;5077318;28;20229;-81
2021/03/20 03:11:51;;;;;;;0.50;0.50;;;-0.20;99.90;;;;;;5076858;28;20179;-79
2021/03/20 03:14:23;;;;;;;0.50;0.50;;;-0.20;99.90;;;;;;5076974;28;20199;-79
2021/03/20 03:16:53;;;;;;;0.50;0.50;;;-0.30;99.90;;;;;;5076477;28;20198;-80
2021/03/20 03:19:28;;;;;;;0.50;0.50;;;-0.30;99.90;;;;;;5076948;28;20537;-78
2021/03/20 03:21:57;;;;;;;0.50;0.50;;;-0.30;99.90;;;;;;5076888;28;20200;-81
2021/03/20 03:24:28;;;;;;;0.50;0.50;;;-0.40;99.90;;;;;;5088894;28;20186;-80
2021/03/20 03:26:58;;;;;;;0.50;0.47;;;-0.50;99.90;;;;;;5096015;28;20721;-80
2021/03/20 03:29:26;;;;;;;0.50;0.50;;;-0.40;99.90;;;;;;5096935;28;20260;-80
2021/03/20 03:32:01;;;;;;;0.50;0.50;;;-0.40;99.90;;;;;;5097806;28;20611;-80
2021/03/20 03:34:39;;;;;;;0.50;0.50;;;-0.50;99.90;;;;;;5097877;28;20268;-80
2021/03/20 03:37:11;;;;;;;0.50;0.40;;;-0.50;99.90;;;;;;5096658;28;20547;-79
2021/03/20 03:39:43;;;;;;;0.50;0.50;;;-0.60;99.90;;;;;;5096929;28;20237;-80
2021/03/20 03:42:12;;;;;;;0.50;0.50;;;-0.70;99.90;;;;;;5094691;28;20217;-80
2021/03/20 03:44:42;;;;;;;0.50;0.40;;;-0.70;99.90;;;;;;5097235;28;20193;-78
2021/03/20 03:47:10;;;;;;;0.50;0.50;;;-0.80;99.90;;;;;;5095787;28;20206;-78
2021/03/20 03:49:37;;;;;;;0.50;0.50;;;-0.80;99.90;;;;;;5097456;28;20208;-79
2021/03/20 03:52:04;;;;;;;0.50;0.50;;;-0.80;99.90;;;;;;5096781;28;20189;-79
2021/03/20 03:54:31;;;;;;;0.50;0.50;;;-0.90;99.90;;;;;;5088649;28;20192;-80
2021/03/20 03:57:38;;;;;;;0.50;0.47;;;-0.80;99.90;;;;;;5096680;28;20197;-80
2021/03/20 04:00:13;;;;;;;0.50;0.43;;;-0.80;99.90;;;;;;5097063;28;20177;-80
2021/03/20 04:02:52;;;;;;;0.50;0.50;;;-0.90;99.90;;;;;;5101702;22;20240;-77
2021/03/20 04:05:24;;;;;;;0.50;0.45;;;-0.90;99.90;;;;;;5083921;28;20186;-78
2021/03/20 04:08:06;;;;;;;0.50;0.45;;;-1.00;99.90;;;;;;5085586;28;20210;-78
2021/03/20 04:10:40;;;;;;;0.50;0.50;;;-1.00;99.90;;;;;;5087115;28;20191;-78
2021/03/20 04:13:14;;;;;;;0.50;0.50;;;-1.10;99.90;;;;;;5085100;28;20683;-79
2021/03/20 04:15:57;;;;;;;0.50;0.50;;;-1.10;99.90;;;;;;5095343;28;20205;-77
2021/03/20 04:18:34;;;;;;;0.50;0.50;;;-1.10;99.90;;;;;;5095316;28;20276;-78
2021/03/20 04:21:10;;;;;;;0.50;0.50;;;-1.10;99.90;;;;;;5095344;28;20685;-78
2021/03/20 04:23:40;;;;;;;0.50;0.50;;;-1.10;99.90;;;;;;5095537;28;20578;-78
2021/03/20 04:26:10;;;;;;;0.50;0.50;;;-1.10;99.90;;;;;;5094682;28;20194;-78
2021/03/20 04:28:48;;;;;;;0.50;0.50;;;-1.10;99.90;;;;;;5095747;28;20197;-78
2021/03/20 04:31:21;;;;;;;0.50;0.40;;;-1.20;99.90;;;;;;5095958;28;20275;-78
2021/03/20 04:33:53;;;;;;;0.50;0.50;;;-1.20;99.90;;;;;;5069349;28;20583;-78
2021/03/20 04:36:28;;;;;;;0.50;0.50;;;-1.20;99.90;;;;;;5081383;28;20185;-79
2021/03/20 04:38:55;;;;;;;0.50;0.50;;;-1.30;99.90;;;;;;5091529;28;20185;-79
2021/03/20 04:41:23;;;;;;;0.50;0.50;;;-1.30;99.90;;;;;;5084128;28;20205;-79
2021/03/20 04:43:49;;;;;;;0.50;0.50;;;-1.30;99.90;;;;;;5090909;28;20216;-80
2021/03/20 04:46:19;;;;;;;0.50;0.50;;;-1.30;99.90;;;;;;5089407;28;20201;-79
2021/03/20 04:48:50;;;;;;;0.50;0.50;;;-1.30;99.90;;;;;;5079657;28;20197;-79
2021/03/20 04:51:32;;;;;;;0.50;0.50;;;-1.20;99.90;;;;;;5079417;28;20185;-78
2021/03/20 04:54:05;;;;;;;0.50;0.47;;;-1.20;99.90;;;;;;5079762;28;20189;-79
2021/03/20 04:56:41;;;;;;;0.50;0.40;;;-1.30;99.90;;;;;;5078554;28;20198;-78
2021/03/20 04:59:17;;;;;;;0.50;0.50;;;-1.30;99.90;;;;;;5079194;28;20690;-79
2021/03/20 05:01:48;;;;;;;0.50;0.50;;;-1.30;99.90;;;;;;5079557;28;20182;-78
2021/03/20 05:04:21;;;;;;;0.70;0.70;;;-1.20;99.90;;;;;;5068624;28;20191;-80
2021/03/20 05:06:52;;;;;;;0.50;0.43;;;-1.20;99.90;;;;;;5079297;28;20209;-79
2021/03/20 05:09:21;;;;;;;0.50;0.50;;;-1.30;99.90;;;;;;5079199;28;20182;-79
2021/03/20 05:11:54;;;;;;;0.50;0.50;;;-1.30;99.90;;;;;;5086415;28;20212;-79
2021/03/20 05:14:27;;;;;;;0.50;0.50;;;-1.30;99.90;;;;;;5087138;28;20300;-78
2021/03/20 05:16:56;;;;;;;0.50;0.50;;;-1.30;99.90;;;;;;5084157;28;20706;-79
2021/03/20 05:19:24;;;;;;;0.50;0.40;;;-1.30;99.90;;;;;;5086315;28;20552;-78
2021/03/20 05:21:54;;;;;;;0.50;0.50;;;-1.30;99.90;;;;;;5085672;28;20202;-79
2021/03/20 05:24:22;;;;;;;0.50;0.50;;;-1.30;99.90;;;;;;5084987;28;20548;-76
2021/03/20 05:26:49;;;;;;;0.50;0.40;;;-1.40;99.90;;;;;;5079136;28;20286;-78
2021/03/20 05:29:16;;;;;;;2.38;2.28;;;-1.40;99.90;;;;;;5079649;28;20197;-78
2021/03/20 05:31:42;;;;;;;0.50;0.50;;;-1.30;99.90;;;;;;5079551;28;20241;-78
2021/03/20 05:34:20;;;;;;;0.50;0.50;;;-1.30;99.90;;;;;;5062364;28;20364;-78
2021/03/20 05:36:47;;;;;;;0.50;0.50;;;-1.40;99.90;;;;;;5079346;28;20226;-78
2021/03/20 05:39:15;;;;;;;0.50;0.50;;;-1.40;99.90;;;;;;5079394;28;20263;-77
2021/03/20 05:42:08;;;;;;;0.50;0.50;;;-1.50;99.90;;;;;;5079420;28;20664;-79
2021/03/20 05:44:57;;;;;;;0.50;0.43;;;-1.50;99.90;;;;;;5076927;28;20201;-78
2021/03/20 05:47:36;;;;;;;0.50;0.50;;;-1.40;99.90;;;;;;5078364;28;20213;-78
2021/03/20 05:50:25;;;;;;;0.50;0.50;;;-1.30;99.90;;;;;;5079582;28;20184;-78
2021/03/20 05:53:22;;;;;;;0.50;0.50;;;-1.30;99.90;;;;;;5079822;28;20215;-78
2021/03/20 05:55:54;;;;;;;0.50;0.50;;;-1.20;99.90;;;;;;5079371;28;20242;-77
2021/03/20 05:58:50;;;;;;;0.50;0.50;;;-1.20;99.90;;;;;;5079686;28;20179;-78
2021/03/20 06:01:40;;;;;;;0.50;0.50;;;-1.10;99.90;;;;;;5079330;28;20268;-77
2021/03/20 06:04:33;;;;;;;0.50;0.50;;;-1.10;99.90;;;;;;5062149;28;20199;-78
2021/03/20 06:07:24;;;;;;;0.50;0.50;;;-1.10;99.90;;;;;;5078675;28;20271;-77
2021/03/20 06:10:00;;;;;;;0.50;0.50;;;-1.10;99.90;;;;;;5068495;28;20198;-78
2021/03/20 06:12:40;;;;;;;0.50;0.50;;;-1.00;99.90;;;;;;5079904;28;20358;-78
2021/03/20 06:15:14;;;;;;;0.50;0.50;;;-0.80;99.90;;;;;;5079787;28;20216;-78
2021/03/20 06:18:04;;;;;;;1.67;1.58;;;-0.80;99.90;;;;;;5078430;28;20182;-75
2021/03/20 06:20:48;;;;;;;0.50;0.40;;;-0.70;99.90;;;;;;5075658;28;20229;-77
2021/03/20 06:23:33;;;;;;;0.50;0.50;;;-0.40;99.90;;;;;;5075719;28;20288;-78
2021/03/20 06:26:04;;;;;;;0.50;0.50;;;0.40;99.90;;;;;;5076356;28;20179;-78
2021/03/20 06:28:37;;;;;;;0.50;0.50;;;1.40;99.90;;;;;;5077141;28;20646;-77
2021/03/20 06:31:12;;;;;;;0.50;0.40;;;1.80;99.90;;;;;;5077006;28;20192;-77
2021/03/20 06:33:44;;;;;;;0.50;0.50;;;2.10;99.90;;;;;;5062442;28;20726;-78
2021/03/20 06:36:16;;;;;;;0.50;0.47;;;2.70;99.90;;;;;;5074515;28;20211;-79
2021/03/20 06:38:47;;;;;;;0.50;0.50;;;3.20;99.90;;;;;;5077411;28;20234;-76
2021/03/20 06:41:20;;;;;;;0.50;0.40;;;3.70;99.90;;;;;;5077371;28;20579;-78
2021/03/20 06:43:54;;;;;;;0.50;0.50;;;3.80;99.90;;;;;;5076924;28;20228;-77
2021/03/20 06:46:26;;;;;;;0.50;0.40;;;3.20;99.90;;;;;;5075649;28;20322;-77
2021/03/20 06:48:54;;;;;;;0.50;0.40;;;2.80;99.90;;;;;;5075994;28;20187;-78
2021/03/20 06:51:21;;;;;;;0.50;0.47;;;2.20;99.90;;;;;;5076667;28;20194;-78
2021/03/20 06:53:55;;;;;;;0.50;0.40;;;2.20;99.90;;;;;;5075999;28;20694;-78
2021/03/20 06:56:21;;;;;;;0.50;0.50;;;2.00;99.90;;;;;;5075343;28;20200;-79
2021/03/20 06:58:49;;;;;;;0.50;0.50;;;2.10;99.90;;;;;;5076154;28;20198;-78
2021/03/20 07:01:37;;;;;;;0.50;0.50;;;2.10;99.90;;;;;;5076344;28;20203;-77
2021/03/20 07:04:20;;;;;;;0.50;0.43;;;2.20;99.90;;;;;;5058008;28;20208;-78
2021/03/20 07:07:13;;;;;;;0.50;0.50;;;2.10;99.90;;;;;;5075508;28;20591;-78
2021/03/20 07:09:42;;;;;;;0.50;0.50;;;2.10;99.90;;;;;;5075358;28;20248;-78
2021/03/20 07:12:10;;;;;;;0.50;0.50;;;2.10;99.90;;;;;;5076659;28;20241;-78
2021/03/20 07:14:42;;;;;;;0.60;0.60;;;2.30;99.90;;;;;;5079765;28;20201;-74
2021/03/20 07:17:11;;;;;;;0.50;0.40;;;2.40;99.90;;;;;;5081387;28;20178;-78
2021/03/20 07:19:52;;;;;;;1.25;1.25;;;2.40;99.90;;;;;;5075528;28;20720;-78
2021/03/20 07:22:27;;;;;;;0.50;0.47;;;2.60;99.90;;;;;;5076051;28;20309;-78
2021/03/20 07:24:53;;;;;;;0.50;0.40;;;2.80;99.90;;;;;;5075730;28;20214;-78
2021/03/20 07:27:23;;;;;;;0.50;0.40;;;2.90;99.90;;;;;;5074361;28;20217;-78
2021/03/20 07:29:53;;;;;;;0.50;0.47;;;3.10;99.90;;;;;;5075297;28;20253;-78
2021/03/20 07:32:32;;;;;;;0.60;0.40;;;3.20;99.90;;;;;;5072809;28;20226;-78
2021/03/20 07:35:14;;;;;;;0.50;0.50;;;3.10;99.90;;;;;;5063683;28;20202;-79
2021/03/20 07:37:41;;;;;;;0.50;0.40;;;3.10;99.90;;;;;;5074848;28;20187;-75
2021/03/20 07:40:14;;;;;;;0.60;0.52;;;3.20;99.90;;;;;;5075810;28;20201;-78
2021/03/20 07:42:42;;;;;;;0.60;0.60;;;3.40;99.90;;;;;;5076003;28;20225;-78
2021/03/20 07:45:27;;;;;;;1.98;1.88;;;3.40;99.90;;;;;;5075404;28;20303;-77
2021/03/20 07:48:01;;;;;;;0.50;0.50;;;3.40;99.90;;;;;;5073658;28;20212;-78
2021/03/20 07:50:31;;;;;;;0.50;0.50;;;3.20;99.90;;;;;;5075343;28;20276;-77
2021/03/20 07:53:11;;;;;;;0.50;0.40;;;3.50;99.90;;;;;;5074312;28;20214;-77
2021/03/20 07:56:29;;;;;;;0.50;0.50;;;3.70;99.90;;;;;;5074833;28;20228;-76
2021/03/20 07:59:11;;;;;;;0.50;0.50;;;4.00;99.90;;;;;;5074461;28;20568;-77
2021/03/20 08:01:40;;;;;;;1.42;1.33;;;4.70;99.90;;;;;;5074954;28;20197;-78
2021/03/20 08:04:09;;;;;;;7.68;2.92;;;5.10;99.90;;;;;;5064235;28;20714;-78
2021/03/20 08:06:45;;;;;;;0.50;0.40;;;5.00;99.90;;;;;;5073963;28;20194;-78
2021/03/20 08:09:22;;;;;;;0.82;0.82;;;4.90;99.90;;;;;;5074789;28;20201;-77
2021/03/20 08:11:52;;;;;;;0.80;0.80;;;5.00;99.90;;;;;;5074247;28;20204;-77
2021/03/20 08:14:24;;;;;;;0.50;0.40;;;5.20;99.90;;;;;;5077379;28;20198;-78
2021/03/20 08:16:52;;;;;;;0.50;0.50;;;5.20;99.90;;;;;;5085173;28;20215;-78
2021/03/20 08:19:19;;;;;;;0.50;0.50;;;5.20;99.90;;;;;;5083075;28;20671;-78
2021/03/20 08:22:21;;;;;;;0.50;0.40;;;5.40;99.90;;;;;;5088974;28;20223;-78
2021/03/20 08:24:54;;;;;;;0.50;0.40;;;5.70;99.90;;;;;;5077170;28;20196;-78
2021/03/20 08:27:29;;;;;;;0.70;0.60;;;6.10;99.90;;;;;;5093491;28;20205;-78
2021/03/20 08:30:17;;;;;;;0.50;0.40;;;6.80;99.90;;;;;;5094678;28;20188;-79
2021/03/20 08:32:57;;;;;;;0.50;0.40;;;7.30;99.90;;;;;;5084778;28;20585;-77
2021/03/20 08:35:27;;;;;;;0.50;0.40;;;8.00;99.90;;;;;;5060164;28;20183;-79
2021/03/20 08:38:22;;;;;;;0.50;0.40;;;8.90;99.90;;;;;;5059338;28;20226;-78
2021/03/20 08:41:00;;;;;;;0.50;0.40;;;9.70;99.90;;;;;;5057925;28;20279;-79
2021/03/20 08:44:03;;;;;;;0.60;0.40;;;11.70;99.90;;;;;;5058107;28;20252;-79
2021/03/20 08:46:57;;;;;;;0.50;0.50;;;11.70;90.60;;;;;;5058297;28;20205;-79
2021/03/20 08:49:48;;;;;;;0.50;0.40;;;12.40;84.00;;;;;;5077242;28;20244;-79
2021/03/20 08:52:22;;;;;;;1.27;0.50;;;11.90;83.70;;;;;;5076670;28;20213;-79
2021/03/20 08:55:20;;;;;;;1.35;1.25;;;11.30;76.40;;;;;;5078677;28;20618;-79
2021/03/20 08:57:52;;;;;;;2.95;1.13;;;11.40;81.80;;;;;;5049036;28;20201;-79
2021/03/20 09:00:23;;;;;;;0.50;0.40;;;11.50;81.90;;;;;;5079707;28;20196;-79
2021/03/20 09:02:53;;;;;;;0.50;0.43;;;11.80;80.30;;;;;;5078542;28;20719;-80
2021/03/20 09:05:26;;;;;;;0.50;0.50;;;11.80;76.40;;;;;;5060651;28;20188;-78
2021/03/20 09:07:57;;;;;;;0.50;0.40;;;11.80;75.50;;;;;;5057706;28;20218;-79
2021/03/20 09:10:27;;;;;;;6.30;0.90;;;11.30;75.70;;;;;;5079245;28;20550;-78
2021/03/20 09:13:02;;;;;;;0.50;0.50;;;10.50;69.60;;;;;;5077445;28;20240;-79
2021/03/20 09:15:30;;;;;;;0.50;0.50;;;10.00;74.00;;;;;;5076911;28;20185;-79
2021/03/20 09:18:00;;;;;;;0.50;0.40;;;10.30;73.20;;;;;;5076454;28;20220;-79
2021/03/20 09:20:38;;;;;;;0.50;0.40;;;10.60;75.70;;;;;;5079292;28;20214;-80
2021/03/20 09:23:06;;;;;;;0.50;0.40;;;11.30;71.80;;;;;;5080034;28;20221;-79
2021/03/20 09:25:37;;;;;;;0.50;0.40;;;11.10;69.80;;;;;;5078219;28;20226;-79
2021/03/20 09:28:13;;;;;;;0.50;0.40;;;11.10;68.50;;;;;;5076439;28;20219;-79
2021/03/20 09:30:42;;;;;;;0.70;0.60;;;11.30;68.60;;;;;;5079432;28;20178;-79
2021/03/20 09:33:29;;;;;;;0.50;0.40;;;11.80;71.60;;;;;;5076924;28;20228;-79
2021/03/20 09:35:58;;;;;;;0.50;0.40;;;12.30;63.30;;;;;;5058163;28;20186;-79
2021/03/20 09:38:47;;;;;;;0.50;0.40;;;12.00;59.90;;;;;;5059221;28;20198;-79
2021/03/20 09:41:34;;;;;;;0.50;0.40;;;12.40;65.60;;;;;;5077864;28;20233;-79
2021/03/20 09:44:24;;;;;;;0.55;0.43;;;13.10;61.20;;;;;;5072455;28;20182;-78
2021/03/20 09:46:56;;;;;;;0.50;0.50;;;12.50;57.20;;;;;;5075645;28;20237;-78
2021/03/20 09:49:57;;;;;;;0.50;0.40;;;12.40;58.60;;;;;;5079070;28;20171;-78
2021/03/20 09:52:52;;;;;;;2.00;1.90;;;12.90;61.10;;;;;;5079684;28;20560;-79
2021/03/20 09:55:46;;;;;;;0.50;0.40;;;13.50;59.00;;;;;;5083679;28;20416;-78
2021/03/20 09:58:35;;;;;;;0.60;0.50;;;13.50;57.20;;;;;;5083260;28;20336;-78
2021/03/20 10:01:08;;;;;;;2.05;1.95;;;12.80;55.60;;;;;;5083285;28;20204;-79
2021/03/20 10:03:50;;;;;;;0.50;0.40;;;13.40;55.60;;;;;;5108711;22;20653;-82
2021/03/20 10:06:28;;;;;;;0.50;0.40;;;13.60;50.50;;;;;;5086140;28;20449;-83
2021/03/20 10:09:20;;;;;;;0.50;0.40;;;14.50;52.40;;;;;;5099791;28;20490;-83
2021/03/20 10:12:17;;;;;;;0.60;0.60;;;15.10;50.90;;;;;;5093896;28;20437;-81
2021/03/20 10:15:15;;;;;;;0.50;0.40;;;14.90;45.60;;;;;;5087876;28;20461;-82
2021/03/20 10:18:00;;;;;;;0.50;0.40;;;15.00;49.40;;;;;;5089615;28;20455;-82
2021/03/20 10:20:38;;;;;;;0.50;0.40;;;15.10;49.80;;;;;;5089177;28;20527;-81
2021/03/20 10:23:13;;;;;;;0.50;0.40;;;15.10;50.10;;;;;;5090001;28;20512;-81
2021/03/20 10:25:46;;;;;;;0.50;0.40;;;15.30;48.00;;;;;;5088862;28;20466;-82
2021/03/20 10:28:15;;;;;;;0.50;0.40;;;15.30;49.20;;;;;;5088963;28;20472;-81
2021/03/20 10:30:55;;;;;;;0.50;0.30;;;15.40;48.70;;;;;;5087451;28;20434;-82
2021/03/20 10:33:24;;;;;;;0.60;0.50;;;15.60;49.40;;;;;;5088505;28;20466;-81
2021/03/20 10:35:51;;;;;;;0.50;0.30;;;15.10;48.20;;;;;;5080482;28;20445;-78
2021/03/20 10:38:20;;;;;;;0.50;0.40;;;15.20;48.80;;;;;;5086993;28;20504;-81
2021/03/20 10:40:58;;;;;;;0.50;0.40;;;15.20;47.30;;;;;;5088436;28;20440;-82
2021/03/20 10:43:25;;;;;;;0.50;0.40;;;15.10;47.30;;;;;;5088730;28;20456;-82
2021/03/20 10:45:52;;;;;;;0.50;0.40;;;14.60;48.80;;;;;;5087100;28;20449;-80
2021/03/20 10:48:24;;;;;;;0.50;0.40;;;15.00;47.60;;;;;;5088849;28;20476;-81
2021/03/20 10:50:58;;;;;;;0.50;0.40;;;15.90;45.50;;;;;;5089325;28;21005;-83
2021/03/20 10:53:27;;;;;;;0.50;0.40;;;16.20;46.80;;;;;;5090056;28;20519;-83
2021/03/20 10:55:56;;;;;;;0.50;0.50;;;16.50;46.20;;;;;;5090352;28;20453;-79
2021/03/20 10:58:29;;;;;;;0.50;0.40;;;16.70;42.50;;;;;;5092515;28;20466;-83
2021/03/20 11:00:56;;;;;;;0.50;0.50;;;17.00;43.80;;;;;;5093002;28;20480;-83
2021/03/20 11:03:28;;;;;;;0.50;0.40;;;17.70;44.00;;;;;;5091917;28;20538;-83
2021/03/20 11:05:55;;;;;;;0.50;0.30;;;17.90;40.20;;;;;;5083402;28;20430;-81
2021/03/20 11:08:27;;;;;;;0.50;0.30;;;18.30;42.60;;;;;;5091383;28;20483;-82
2021/03/20 11:11:08;;;;;;;0.50;0.40;;;16.60;39.10;;;;;;5099509;28;20425;-84
2021/03/20 11:13:38;;;;;;;0.50;0.40;;;16.40;41.40;;;;;;5079889;28;20466;-84
2021/03/20 11:16:07;;;;;;;0.50;0.40;;;17.10;42.40;;;;;;5098160;28;20463;-83
2021/03/20 11:18:38;;;;;;;0.50;0.40;;;17.30;38.60;;;;;;5101498;28;20428;-83
2021/03/20 11:21:18;;;;;;;0.80;0.47;;;16.30;38.70;;;;;;5093768;28;20446;-82
2021/03/20 11:23:52;;;;;;;1.73;0.60;;;15.80;38.60;;;;;;5095028;28;20463;-84
2021/03/20 11:26:29;;;;;;;0.50;0.30;;;15.30;38.90;;;;;;5089504;28;20472;-83
2021/03/20 11:28:55;;;;;;;0.50;0.40;;;14.90;39.00;;;;;;5092689;28;20466;-82
2021/03/20 11:31:23;;;;;;;0.50;0.40;;;14.70;39.20;;;;;;5094789;28;20444;-82
2021/03/20 11:33:49;;;;;;;0.50;0.40;;;14.80;39.10;;;;;;5094532;28;20467;-80
2021/03/20 11:36:21;;;;;;;0.50;0.40;;;15.30;41.30;;;;;;5077982;28;20460;-82
2021/03/20 11:38:48;;;;;;;0.50;0.40;;;16.70;42.50;;;;;;5088725;28;20413;-83
2021/03/20 11:41:19;;;;;;;0.50;0.37;;;18.00;43.80;;;;;;5088824;28;20459;-81
2021/03/20 11:43:50;;;;;;;0.50;0.40;;;17.60;39.70;;;;;;5092481;28;20463;-81
2021/03/20 11:46:20;;;;;;;0.50;0.40;;;17.10;39.70;;;;;;5088408;28;20431;-81
2021/03/20 11:48:54;;;;;;;0.50;0.30;;;17.60;40.80;;;;;;5090495;28;20833;-84
2021/03/20 11:51:23;;;;;;;0.50;0.30;;;18.40;41.50;;;;;;5089912;28;20450;-81
2021/03/20 11:53:53;;;;;;;0.50;0.30;;;18.30;39.80;;;;;;5088003;28;20538;-81
2021/03/20 11:56:24;;;;;;;1.37;1.27;;;19.00;41.90;;;;;;5086093;28;20460;-81
2021/03/20 11:58:54;;;;;;;0.50;0.40;;;19.70;40.00;;;;;;5086268;28;20437;-82
2021/03/20 12:01:46;;;;;;;0.50;0.30;;;20.10;40.40;;;;;;5088954;28;20455;-82
2021/03/20 12:04:24;;;;;;;0.50;0.40;;;20.40;41.50;;;;;;5086513;28;20886;-82
2021/03/20 12:06:52;;;;;;;0.50;0.40;;;20.70;39.00;;;;;;5077575;28;20451;-82
2021/03/20 12:09:33;;;;;;;0.97;0.97;;;20.10;38.30;;;;;;5087382;28;20429;-82
2021/03/20 12:12:00;;;;;;;0.50;0.37;;;20.70;38.40;;;;;;5088176;28;20462;-81
2021/03/20 12:14:35;;;;;;;0.50;0.40;;;20.00;38.00;;;;;;5087442;28;20463;-83
2021/03/20 12:17:14;;;;;;;1.80;1.33;;;20.80;39.90;;;;;;5080316;28;20444;-82
2021/03/20 12:19:56;;;;;;;1.43;1.33;;;21.30;39.20;;;;;;5089554;28;20459;-82
2021/03/20 12:22:47;;;;;;;0.50;0.40;;;21.90;39.60;;;;;;5108688;28;20430;-82
2021/03/20 12:25:28;;;;;;;0.50;0.30;;;21.70;37.20;;;;;;5095690;28;20501;-82
2021/03/20 12:28:15;;;;;;;0.50;0.37;;;20.70;35.90;;;;;;5097547;28;20459;-81
2021/03/20 12:30:42;;;;;;;0.50;0.40;;;20.20;36.10;;;;;;5098450;28;20522;-80
2021/03/20 12:33:18;;;;;;;0.50;0.30;;;19.90;38.40;;;;;;5098621;28;20489;-81
2021/03/20 12:35:49;;;;;;;0.50;0.40;;;20.90;38.40;;;;;;5073249;28;20776;-82
2021/03/20 12:38:19;;;;;;;0.50;0.40;;;21.60;36.70;;;;;;5079940;28;20438;-82
2021/03/20 12:40:52;;;;;;;0.50;0.30;;;21.30;35.90;;;;;;5080941;28;20471;-81
2021/03/20 12:43:24;;;;;;;0.50;0.30;;;21.30;35.40;;;;;;5080712;28;20471;-81
2021/03/20 12:45:53;;;;;;;0.50;0.30;;;21.50;37.00;;;;;;5079279;28;20467;-78
2021/03/20 12:48:21;;;;;;;3.03;2.93;;;22.60;36.20;;;;;;5080528;28;21003;-82
2021/03/20 12:50:47;;;;;;;4.03;3.77;;;23.80;35.60;;;;;;5081534;28;20909;-82
2021/03/20 12:53:14;;;;;;;0.50;0.30;;;23.30;33.40;;;;;;5082113;28;20470;-81
2021/03/20 12:55:40;;;;;;;0.50;0.37;;;22.10;34.50;;;;;;5084468;28;20448;-81
2021/03/20 12:58:07;;;;;;;0.50;0.30;;;21.80;35.90;;;;;;5087144;28;20432;-82
2021/03/20 13:00:33;;;;;;;1.37;1.27;;;20.90;36.20;;;;;;5085421;28;20527;-82
2021/03/20 13:03:00;;;;;;;0.50;0.40;;;19.80;35.50;;;;;;5085719;28;20437;-79
2021/03/20 13:05:29;;;;;;;0.50;0.30;;;18.30;35.50;;;;;;5081583;28;20429;-82
2021/03/20 13:07:56;;;;;;;0.70;0.70;;;17.00;36.10;;;;;;5079999;28;20472;-79
2021/03/20 13:10:23;;;;;;;0.77;0.70;;;16.80;38.20;;;;;;5084728;28;20443;-80
2021/03/20 13:12:50;;;;;;;0.50;0.30;;;16.50;39.20;;;;;;5086078;28;20496;-80
2021/03/20 13:15:17;;;;;;;0.60;0.50;;;16.50;39.10;;;;;;5085037;28;20938;-80
2021/03/20 13:17:44;;;;;;;0.50;0.40;;;16.40;39.20;;;;;;5081803;28;20424;-80
2021/03/20 13:20:12;;;;;;;0.50;0.40;;;16.80;40.70;;;;;;5084259;28;20433;-81
2021/03/20 13:22:38;;;;;;;0.60;0.50;;;17.50;41.40;;;;;;5083901;28;20462;-80
2021/03/20 13:25:06;;;;;;;0.50;0.33;;;18.10;40.00;;;;;;5085552;28;20460;-81